Time;durP1;ratioP1;P1;durP2;ratioP2;P2;SDS_P1;SDS_P2;PMS_P1;PMS_P2;Temp;Humidity;BMP_temperature;BMP_pressure;BME280_temperature;BME280_humidity;BME280_pressure;Samples;Min_cycle;Max_cycle;Signal;HPM_P1;HPM_P2
2023/07/17 00:00:43;;;;;;;;;;;;;;;21.38;46.03;101469.09;4851248;28;114134;-75
2023/07/17 00:03:13;;;;;;;;;;;;;;;21.38;46.02;101467.25;4841846;29;113311;-75
2023/07/17 00:05:40;;;;;;;;;;;;;;;21.37;46.00;101464.69;4838516;29;123792;-75
2023/07/17 00:08:09;;;;;;;;;;;;;;;21.35;46.03;101472.03;4848921;29;123899;-75
2023/07/17 00:10:38;;;;;;;;;;;;;;;21.33;46.07;101474.84;4848857;29;114513;-74
2023/07/17 00:13:05;;;;;;;;;;;;;;;21.32;46.00;101477.66;4865233;28;114129;-75
2023/07/17 00:15:32;;;;;;;;;;;;;;;21.30;46.08;101471.53;4849416;29;125141;-75
2023/07/17 00:17:59;;;;;;;;;;;;;;;21.25;46.08;101480.00;4848382;29;124242;-75
2023/07/17 00:20:26;;;;;;;;;;;;;;;21.22;46.15;101471.31;4843247;29;114229;-75
2023/07/17 00:22:53;;;;;;;;;;;;;;;21.18;46.08;101466.16;4861574;28;113807;-74
2023/07/17 00:25:20;;;;;;;;;;;;;;;21.15;46.29;101466.41;4860271;28;123597;-75
2023/07/17 00:27:47;;;;;;;;;;;;;;;21.12;46.16;101469.34;4846692;29;124799;-75
2023/07/17 00:30:14;;;;;;;;;;;;;;;21.10;46.19;101473.16;4837941;29;114809;-75
2023/07/17 00:32:41;;;;;;;;;;;;;;;21.05;46.13;101475.34;4849738;28;113203;-74
2023/07/17 00:35:08;;;;;;;;;;;;;;;21.02;46.28;101476.47;4852709;28;124747;-75
2023/07/17 00:37:35;;;;;;;;;;;;;;;20.98;46.29;101474.97;4843885;29;124093;-74
2023/07/17 00:40:04;;;;;;;;;;;;;;;20.94;46.30;101473.50;4848083;28;114522;-75
2023/07/17 00:42:31;;;;;;;;;;;;;;;20.89;46.35;101481.06;4836324;29;114574;-75
2023/07/17 00:44:58;;;;;;;;;;;;;;;20.86;46.45;101479.47;4862442;28;122742;-76
2023/07/17 00:47:25;;;;;;;;;;;;;;;20.84;46.39;101477.91;4861478;28;123640;-75
2023/07/17 00:49:52;;;;;;;;;;;;;;;20.82;46.37;101485.25;4848650;29;113959;-75
2023/07/17 00:52:20;;;;;;;;;;;;;;;20.78;46.51;101485.47;4853688;29;114384;-75
2023/07/17 00:54:47;;;;;;;;;;;;;;;20.76;46.43;101479.34;4860610;28;123740;-75
2023/07/17 00:57:15;;;;;;;;;;;;;;;20.73;46.57;101482.28;4847264;29;124467;-75
2023/07/17 00:59:42;;;;;;;;;;;;;;;20.72;46.58;101485.06;4858734;28;114401;-76
2023/07/17 01:02:10;;;;;;;;;;;;;;;20.71;46.46;101500.38;4843638;28;113900;-74
2023/07/17 01:04:37;;;;;;;;;;;;;;;20.69;46.49;101493.41;4842226;29;124382;-75
2023/07/17 01:07:04;;;;;;;;;;;;;;;20.65;46.49;101506.25;4845597;28;123695;-75
2023/07/17 01:09:31;;;;;;;;;;;;;;;20.63;46.58;101508.19;4839662;29;114306;-75
2023/07/17 01:11:58;;;;;;;;;;;;;;;20.60;46.67;101503.03;4861979;28;113009;-75
2023/07/17 01:14:25;;;;;;;;;;;;;;;20.58;46.72;101499.59;4840966;29;126049;-75
2023/07/17 01:16:52;;;;;;;;;;;;;;;20.56;46.75;101501.53;4860040;28;124439;-75
2023/07/17 01:19:19;;;;;;;;;;;;;;;20.52;46.64;101508.13;4841238;29;114873;-75
2023/07/17 01:21:49;;;;;;;;;;;;;;;20.51;46.64;101509.09;4836744;29;115759;-76
2023/07/17 01:24:17;;;;;;;;;;;;;;;20.50;46.72;101502.03;4858930;28;123855;-75
2023/07/17 01:26:44;;;;;;;;;;;;;;;20.48;46.81;101498.59;4848169;29;124168;-75
2023/07/17 01:29:11;;;;;;;;;;;;;;;20.47;46.69;101496.84;4836047;29;114872;-75
2023/07/17 01:31:38;;;;;;;;;;;;;;;20.46;46.90;101495.16;4850421;28;113830;-74
2023/07/17 01:34:06;;;;;;;;;;;;;;;20.42;46.91;101508.84;4837435;29;124654;-75
2023/07/17 01:36:33;;;;;;;;;;;;;;;20.40;46.83;101508.09;4849711;28;123811;-75
2023/07/17 01:39:00;;;;;;;;;;;;;;;20.37;46.92;101507.47;4839814;29;114771;-75
2023/07/17 01:41:27;;;;;;;;;;;;;;;20.35;46.82;101507.59;4840929;29;114194;-75
2023/07/17 01:43:58;;;;;;;;;;;;;;;20.33;46.94;101516.75;4850556;28;98689;-75
2023/07/17 01:46:25;;;;;;;;;;;;;;;20.30;46.93;101517.81;4842576;29;124287;-75
2023/07/17 01:48:52;;;;;;;;;;;;;;;20.28;46.93;101514.41;4849690;28;114299;-75
2023/07/17 01:51:19;;;;;;;;;;;;;;;20.24;46.89;101512.91;4857522;28;116381;-75
2023/07/17 01:53:47;;;;;;;;;;;;;;;20.21;46.89;101515.81;4845207;29;124590;-75
2023/07/17 01:56:14;;;;;;;;;;;;;;;20.17;47.03;101517.91;4864165;28;124152;-75
2023/07/17 01:58:41;;;;;;;;;;;;;;;20.16;47.00;101515.34;4843368;29;113787;-75
2023/07/17 02:01:08;;;;;;;;;;;;;;;20.13;46.89;101510.16;4848663;29;114332;-75
2023/07/17 02:03:36;;;;;;;;;;;;;;;20.09;47.08;101514.06;4842277;29;124425;-75
2023/07/17 02:06:03;;;;;;;;;;;;;;;20.07;47.18;101510.63;4838554;29;124046;-75
2023/07/17 02:08:30;;;;;;;;;;;;;;;20.03;47.05;101510.84;4862489;28;113892;-75
2023/07/17 02:10:57;;;;;;;;;;;;;;;20.01;46.99;101502.03;4835984;29;112340;-75
2023/07/17 02:13:24;;;;;;;;;;;;;;;19.99;47.20;101509.38;4843643;29;124162;-76
2023/07/17 02:15:51;;;;;;;;;;;;;;;19.97;47.18;101500.56;4864711;28;124251;-75
2023/07/17 02:18:18;;;;;;;;;;;;;;;19.96;47.11;101498.84;4843517;29;116067;-75
2023/07/17 02:20:47;;;;;;;;;;;;;;;19.94;47.19;101503.47;4847172;29;115591;-75
2023/07/17 02:23:15;;;;;;;;;;;;;;;19.92;47.10;101497.34;4845827;29;125634;-75
2023/07/17 02:25:42;;;;;;;;;;;;;;;19.90;47.28;101504.69;4848463;29;123726;-75
2023/07/17 02:28:10;;;;;;;;;;;;;;;19.86;47.28;101497.81;4838572;29;115402;-75
2023/07/17 02:30:37;;;;;;;;;;;;;;;19.84;47.19;101507.81;4848534;28;113385;-75
2023/07/17 02:33:04;;;;;;;;;;;;;;;19.81;47.21;101505.34;4835428;29;125670;-75
2023/07/17 02:35:31;;;;;;;;;;;;;;;19.78;47.32;101506.44;4840209;29;124711;-75
2023/07/17 02:37:58;;;;;;;;;;;;;;;19.76;47.18;101512.88;4851237;28;114985;-75
2023/07/17 02:40:25;;;;;;;;;;;;;;;19.73;47.22;101518.50;4840869;29;113714;-75
2023/07/17 02:42:52;;;;;;;;;;;;;;;19.71;47.44;101518.56;4848690;29;123219;-75
2023/07/17 02:45:19;;;;;;;;;;;;;;;19.68;47.40;101515.25;4838178;29;124648;-75
2023/07/17 02:47:46;;;;;;;;;;;;;;;19.65;47.42;101522.56;4843116;29;113942;-75
2023/07/17 02:50:14;;;;;;;;;;;;;;;19.64;47.43;101525.38;4846106;29;114306;-75
2023/07/17 02:52:41;;;;;;;;;;;;;;;19.61;47.43;101531.84;4842770;29;124396;-75
2023/07/17 02:55:08;;;;;;;;;;;;;;;19.58;47.44;101532.03;4852415;29;124293;-75
2023/07/17 02:57:35;;;;;;;;;;;;;;;19.56;47.47;101539.34;4857672;28;112665;-75
2023/07/17 03:00:08;;;;;;;;;;;;;;;19.53;47.35;101539.56;4863577;28;114768;-75
2023/07/17 03:02:35;;;;;;;;;;;;;;;19.51;47.49;101544.19;4839729;29;124299;-75
2023/07/17 03:05:04;;;;;;;;;;;;;;;19.49;47.39;101537.22;4846616;29;124015;-75
2023/07/17 03:07:32;;;;;;;;;;;;;;;19.46;47.48;101538.31;4849674;29;115716;-75
2023/07/17 03:09:59;;;;;;;;;;;;;;;19.44;47.45;101540.25;4857399;28;113478;-75
2023/07/17 03:12:26;;;;;;;;;;;;;;;19.40;47.44;101539.63;4861979;28;123705;-75
2023/07/17 03:14:53;;;;;;;;;;;;;;;19.39;47.64;101542.41;4862119;28;123649;-75
2023/07/17 03:17:20;;;;;;;;;;;;;;;19.37;47.60;101544.34;4866566;28;113697;-75
2023/07/17 03:19:47;;;;;;;;;;;;;;;19.35;47.68;101546.28;4845775;29;113697;-75
2023/07/17 03:22:14;;;;;;;;;;;;;;;19.32;47.48;101546.47;4850464;29;124527;-75
2023/07/17 03:24:41;;;;;;;;;;;;;;;19.29;47.56;101554.75;4844569;29;124192;-75
2023/07/17 03:27:08;;;;;;;;;;;;;;;19.26;47.75;101548.63;4841039;29;114525;-75
2023/07/17 03:29:35;;;;;;;;;;;;;;;19.24;47.72;101550.56;4841603;29;113682;-75
2023/07/17 03:32:02;;;;;;;;;;;;;;;19.22;47.60;101557.88;4835575;29;124705;-75
2023/07/17 03:34:28;;;;;;;;;;;;;;;19.21;47.86;101556.16;4843279;29;124884;-75
2023/07/17 03:36:55;;;;;;;;;;;;;;;19.20;47.74;101559.81;4839531;29;114636;-75
2023/07/17 03:39:22;;;;;;;;;;;;;;;19.18;47.74;101561.75;4843188;29;114114;-75
2023/07/17 03:41:50;;;;;;;;;;;;;;;19.15;47.82;101567.31;4834023;29;125275;-75
2023/07/17 03:44:17;;;;;;;;;;;;;;;19.12;47.82;101567.56;4836619;29;123125;-75
2023/07/17 03:46:44;;;;;;;;;;;;;;;19.09;47.71;101561.53;4848599;29;114636;-74
2023/07/17 03:49:11;;;;;;;;;;;;;;;19.07;47.83;101564.31;4851568;28;114076;-75
2023/07/17 03:51:39;;;;;;;;;;;;;;;19.04;47.93;101559.16;4835564;29;125395;-76
2023/07/17 03:54:07;;;;;;;;;;;;;;;19.03;47.97;101555.63;4851496;28;124745;-75
2023/07/17 03:56:39;;;;;;;;;;;;;;;19.03;47.97;101561.00;4861858;28;115462;-75
2023/07/17 03:59:06;;;;;;;;;;;;;;;19.02;47.97;101561.97;4850571;28;116225;-75
2023/07/17 04:01:33;;;;;;;;;;;;;;;19.01;47.96;101559.38;4858116;28;124256;-75
2023/07/17 04:04:00;;;;;;;;;;;;;;;18.99;47.96;101567.53;4858137;28;124458;-75
2023/07/17 04:06:28;;;;;;;;;;;;;;;18.97;48.03;101564.09;4847878;28;112963;-75
2023/07/17 04:08:55;;;;;;;;;;;;;;;18.96;47.97;101561.53;4860965;28;113341;-75
2023/07/17 04:11:23;;;;;;;;;;;;;;;18.96;48.16;101572.25;4853520;28;123459;-75
2023/07/17 04:13:52;;;;;;;;;;;;;;;18.97;47.95;101574.00;4853164;28;123205;-75
2023/07/17 04:16:20;;;;;;;;;;;;;;;18.97;48.15;101571.31;4865772;28;114003;-75
2023/07/17 04:18:48;;;;;;;;;;;;;;;18.98;48.07;101575.69;4851841;28;114628;-75
2023/07/17 04:21:14;;;;;;;;;;;;;;;18.99;47.94;101577.44;4861983;28;125322;-75
2023/07/17 04:23:42;;;;;;;;;;;;;;;18.97;48.08;101584.72;4857309;28;125914;-75
2023/07/17 04:26:15;;;;;;;;;;;;;;;18.96;48.20;101588.38;4850313;28;114076;-75
2023/07/17 04:28:42;;;;;;;;;;;;;;;18.96;48.07;101588.38;4844205;29;113983;-76
2023/07/17 04:31:09;;;;;;;;;;;;;;;18.95;48.20;101586.63;4835811;29;124569;-75
2023/07/17 04:33:36;;;;;;;;;;;;;;;18.96;48.10;101596.41;4836475;29;124265;-75
2023/07/17 04:36:07;;;;;;;;;;;;;;;18.98;48.34;101589.13;4848398;28;115727;-75
2023/07/17 04:38:34;;;;;;;;;;;;;;;18.97;48.22;101598.16;4851000;28;112624;-75
2023/07/17 04:41:03;;;;;;;;;;;;;;;18.97;48.29;101584.72;4832119;29;125947;-75
2023/07/17 04:43:30;;;;;;;;;;;;;;;18.97;48.28;101595.47;4837133;29;125142;-75
2023/07/17 04:45:57;;;;;;;;;;;;;;;19.00;48.29;101596.09;4839537;29;115670;-75
2023/07/17 04:48:25;;;;;;;;;;;;;;;19.02;48.32;101598.66;4849074;28;114089;-76
2023/07/17 04:50:54;;;;;;;;;;;;;;;19.04;48.20;101602.09;4833920;29;123263;-75
2023/07/17 04:53:22;;;;;;;;;;;;;;;19.08;48.52;101603.66;4850534;28;122711;-75
2023/07/17 04:55:49;;;;;;;;;;;;;;;19.14;48.51;101608.59;4854578;28;114066;-75
2023/07/17 04:58:18;;;;;;;;;;;;;;;19.21;48.60;101615.25;4847813;29;113722;-75
2023/07/17 05:00:47;;;;;;;;;;;;;;;19.24;48.54;101609.66;4842668;29;123421;-75
2023/07/17 05:03:15;;;;;;;;;;;;;;;19.31;48.85;101609.22;4849574;28;124349;-75
2023/07/17 05:05:52;;;;;;;;;;;;;;;19.37;48.85;101619.56;4849939;28;116002;-75
2023/07/17 05:08:19;;;;;;;;;;;;;;;19.41;48.56;101623.75;4850708;28;112834;-75
2023/07/17 05:10:53;;;;;;;;;;;;;;;19.44;48.67;101620.84;4842576;29;124170;-75
2023/07/17 05:13:21;;;;;;;;;;;;;;;19.47;48.59;101619.75;4845167;29;124158;-75
2023/07/17 05:15:49;;;;;;;;;;;;;;;19.48;48.48;101616.09;4842529;29;115369;-75
2023/07/17 05:18:18;;;;;;;;;;;;;;;19.47;48.44;101617.94;4841335;28;114481;-74
2023/07/17 05:20:47;;;;;;;;;;;;;;;19.47;48.49;101620.63;4846946;28;123925;-75
2023/07/17 05:23:14;;;;;;;;;;;;;;;19.48;48.49;101627.72;4841586;29;123587;-75
2023/07/17 05:25:50;;;;;;;;;;;;;;;19.47;48.40;101631.34;4841777;29;113765;-74
2023/07/17 05:28:17;;;;;;;;;;;;;;;19.48;48.33;101632.22;4850117;28;114984;-75
2023/07/17 05:30:44;;;;;;;;;;;;;;;19.48;48.31;101627.72;4849220;28;123509;-75
2023/07/17 05:33:12;;;;;;;;;;;;;;;19.47;48.52;101631.34;4849859;28;124756;-74
2023/07/17 05:35:39;;;;;;;;;;;;;;;19.49;48.52;101634.81;4846936;28;116573;-75
2023/07/17 05:38:06;;;;;;;;;;;;;;;19.51;48.53;101638.22;4850337;28;114069;-75
2023/07/17 05:40:35;;;;;;;;;;;;;;;19.53;48.42;101636.28;4848623;28;126231;-75
2023/07/17 05:43:04;;;;;;;;;;;;;;;19.56;48.53;101640.63;4838090;29;125577;-75
2023/07/17 05:45:31;;;;;;;;;;;;;;;19.56;48.45;101646.84;4849834;28;114927;-75
2023/07/17 05:47:59;;;;;;;;;;;;;;;19.60;48.37;101647.50;4834165;29;112946;-75
2023/07/17 05:50:26;;;;;;;;;;;;;;;19.64;48.59;101647.16;4834280;29;124294;-74
2023/07/17 05:52:53;;;;;;;;;;;;;;;19.68;48.54;101655.00;4836258;28;124266;-75
2023/07/17 05:55:20;;;;;;;;;;;;;;;19.71;48.51;101654.81;4838874;29;114626;-75
2023/07/17 05:57:47;;;;;;;;;;;;;;;19.76;48.33;101652.66;4834140;29;111912;-75
2023/07/17 06:00:14;;;;;;;;;;;;;;;19.80;48.63;101655.03;4833745;29;125147;-75
2023/07/17 06:02:44;;;;;;;;;;;;;;;19.83;48.48;101659.31;4845607;28;122482;-77
2023/07/17 06:05:11;;;;;;;;;;;;;;;19.86;48.51;101659.13;4834712;29;114330;-76
2023/07/17 06:07:38;;;;;;;;;;;;;;;19.88;48.47;101649.13;4840767;29;113584;-76
2023/07/17 06:10:05;;;;;;;;;;;;;;;19.95;48.53;101653.09;4834979;29;123854;-77
2023/07/17 06:12:32;;;;;;;;;;;;;;;20.01;48.53;101657.16;4837341;29;123745;-77
2023/07/17 06:14:59;;;;;;;;;;;;;;;20.06;48.64;101670.25;4857482;28;115261;-77
2023/07/17 06:17:27;;;;;;;;;;;;;;;20.12;48.66;101669.84;4831371;29;113845;-75
2023/07/17 06:19:54;;;;;;;;;;;;;;;20.17;48.72;101662.28;4848417;28;124428;-74
2023/07/17 06:22:21;;;;;;;;;;;;;;;20.25;48.51;101670.66;4832276;29;125232;-74
2023/07/17 06:24:48;;;;;;;;;;;;;;;20.32;48.58;101677.28;4829004;29;114727;-74
2023/07/17 06:27:15;;;;;;;;;;;;;;;20.38;48.53;101671.50;4849324;28;115235;-74
2023/07/17 06:29:42;;;;;;;;;;;;;;;20.44;48.65;101680.94;4830821;29;124280;-74
2023/07/17 06:32:09;;;;;;;;;;;;;;;20.52;48.67;101683.06;4831515;29;123961;-75
2023/07/17 06:34:36;;;;;;;;;;;;;;;20.60;48.59;101680.69;4835188;29;114306;-74
2023/07/17 06:37:04;;;;;;;;;;;;;;;20.66;48.59;101685.59;4848193;28;112818;-75
2023/07/17 06:39:31;;;;;;;;;;;;;;;20.73;48.65;101681.50;4833970;29;124238;-75
2023/07/17 06:41:58;;;;;;;;;;;;;;;20.80;48.64;101682.75;4850754;28;125524;-75
2023/07/17 06:44:25;;;;;;;;;;;;;;;20.88;48.59;101681.31;4835039;29;114564;-75
2023/07/17 06:46:52;;;;;;;;;;;;;;;20.99;48.59;101687.59;4853260;28;113711;-76
2023/07/17 06:49:19;;;;;;;;;;;;;;;21.11;48.71;101691.19;4840662;29;124463;-75
2023/07/17 06:51:49;;;;;;;;;;;;;;;21.22;48.59;101681.44;4845204;29;125649;-75
2023/07/17 06:54:16;;;;;;;;;;;;;;;21.36;48.61;101694.69;4843992;29;114933;-75
2023/07/17 06:56:43;;;;;;;;;;;;;;;21.48;48.62;101693.78;4857912;28;113817;-75
2023/07/17 06:59:10;;;;;;;;;;;;;;;21.58;48.45;101694.78;4841889;29;124107;-75
2023/07/17 07:01:37;;;;;;;;;;;;;;;21.70;48.59;101697.50;4837565;29;123917;-75
2023/07/17 07:04:04;;;;;;;;;;;;;;;21.83;48.46;101700.09;4830307;29;113837;-75
2023/07/17 07:06:31;;;;;;;;;;;;;;;21.92;48.54;101705.59;4846266;28;113117;-75
2023/07/17 07:08:58;;;;;;;;;;;;;;;22.05;48.39;101707.34;4853611;28;123400;-75
2023/07/17 07:11:25;;;;;;;;;;;;;;;22.17;48.47;101709.06;4842648;29;124116;-75
2023/07/17 07:13:52;;;;;;;;;;;;;;;22.30;48.43;101715.22;4858233;28;115724;-75
2023/07/17 07:16:19;;;;;;;;;;;;;;;22.45;48.36;101717.63;4850067;29;115011;-75
2023/07/17 07:18:47;;;;;;;;;;;;;;;22.58;48.46;101715.63;4847132;29;124342;-75
2023/07/17 07:21:14;;;;;;;;;;;;;;;22.67;48.29;101714.88;4849836;29;122468;-75
2023/07/17 07:23:41;;;;;;;;;;;;;;;22.76;48.10;101723.22;4850480;29;115193;-75
2023/07/17 07:26:08;;;;;;;;;;;;;;;22.83;48.13;101724.41;4866762;28;113744;-75
2023/07/17 07:28:35;;;;;;;;;;;;;;;22.92;48.13;101729.06;4843170;29;124407;-75
2023/07/17 07:31:02;;;;;;;;;;;;;;;23.02;48.08;101727.31;4855278;29;124482;-75
2023/07/17 07:33:29;;;;;;;;;;;;;;;23.13;47.98;101727.28;4873697;29;114343;-74
2023/07/17 07:35:56;;;;;;;;;;;;;;;23.17;47.84;101737.81;4854199;29;114345;-75
2023/07/17 07:38:23;;;;;;;;;;;;;;;23.17;47.75;101727.03;4851681;29;124796;-75
2023/07/17 07:40:50;;;;;;;;;;;;;;;23.18;47.77;101734.16;4857067;28;123570;-75
2023/07/17 07:43:17;;;;;;;;;;;;;;;23.20;47.67;101737.59;4846110;29;115433;-75
2023/07/17 07:45:44;;;;;;;;;;;;;;;23.25;47.73;101738.06;4845466;29;113691;-75
2023/07/17 07:48:11;;;;;;;;;;;;;;;23.27;47.69;101738.78;4849393;29;125054;-75
2023/07/17 07:50:38;;;;;;;;;;;;;;;23.27;47.65;101744.19;4848678;29;123644;-76
2023/07/17 07:53:05;;;;;;;;;;;;;;;23.24;47.49;101755.25;4847655;29;113561;-76
2023/07/17 07:55:32;;;;;;;;;;;;;;;23.17;47.55;101744.13;4849398;29;113441;-76
2023/07/17 07:57:59;;;;;;;;;;;;;;;23.13;47.46;101759.72;4847243;29;124051;-75
2023/07/17 08:00:26;;;;;;;;;;;;;;;23.10;47.47;101754.56;4849915;29;123958;-75
2023/07/17 08:02:54;;;;;;;;;;;;;;;23.09;47.57;101758.28;4844983;29;115305;-75
2023/07/17 08:05:22;;;;;;;;;;;;;;;23.13;47.59;101757.03;4862368;28;115149;-76
2023/07/17 08:07:50;;;;;;;;;;;;;;;23.23;47.85;101765.22;4864992;28;124532;-75
2023/07/17 08:10:17;;;;;;;;;;;;;;;23.34;48.00;101761.59;4844471;29;123975;-76
2023/07/17 08:12:44;;;;;;;;;;;;;;;23.45;47.83;101758.84;4843144;29;114582;-76
2023/07/17 08:15:11;;;;;;;;;;;;;;;23.50;47.40;101767.41;4846640;29;113456;-76
2023/07/17 08:17:38;;;;;;;;;;;;;;;23.57;47.59;101766.91;4852295;29;124209;-76
2023/07/17 08:20:06;;;;;;;;;;;;;;;23.61;47.72;101765.66;4846090;29;123819;-76
2023/07/17 08:22:33;;;;;;;;;;;;;;;23.65;47.65;101767.09;4848024;28;113706;-75
2023/07/17 08:25:00;;;;;;;;;;;;;;;23.70;47.51;101768.41;4840462;29;114290;-75
2023/07/17 08:27:27;;;;;;;;;;;;;;;23.76;47.44;101767.03;4849108;29;124827;-76
2023/07/17 08:29:54;;;;;;;;;;;;;;;23.81;47.48;101772.94;4862048;28;123789;-76
2023/07/17 08:32:21;;;;;;;;;;;;;;;23.90;47.36;101769.44;4862248;28;113844;-76
2023/07/17 08:34:48;;;;;;;;;;;;;;;24.01;47.58;101771.19;4846960;29;113792;-76
2023/07/17 08:37:15;;;;;;;;;;;;;;;24.13;47.41;101769.25;4851880;29;124419;-75
2023/07/17 08:39:42;;;;;;;;;;;;;;;24.28;47.47;101767.91;4862389;28;123052;-76
2023/07/17 08:42:10;;;;;;;;;;;;;;;24.42;47.44;101768.53;4851250;28;113473;-76
2023/07/17 08:44:37;;;;;;;;;;;;;;;24.51;47.21;101773.13;4852503;28;112293;-75
2023/07/17 08:47:07;;;;;;;;;;;;;;;24.64;47.43;101768.34;4861211;28;124256;-76
2023/07/17 08:49:35;;;;;;;;;;;;;;;24.75;47.37;101769.22;4849862;28;124105;-75
2023/07/17 08:52:03;;;;;;;;;;;;;;;24.82;47.08;101770.38;4864499;28;114707;-75
2023/07/17 08:54:33;;;;;;;;;;;;;;;24.80;46.87;101777.78;4852161;29;114037;-75
2023/07/17 08:57:02;;;;;;;;;;;;;;;24.77;46.89;101767.22;4863039;28;124657;-76
2023/07/17 08:59:29;;;;;;;;;;;;;;;24.82;46.78;101770.38;4846296;29;124644;-76
2023/07/17 09:01:57;;;;;;;;;;;;;;;24.89;46.77;101771.53;4862049;28;113477;-76
2023/07/17 09:04:25;;;;;;;;;;;;;;;24.93;46.99;101767.53;4845794;29;114066;-75
2023/07/17 09:06:52;;;;;;;;;;;;;;;25.03;46.99;101773.84;4842818;29;125432;-75
2023/07/17 09:09:20;;;;;;;;;;;;;;;25.12;46.91;101771.25;4850630;29;124528;-75
2023/07/17 09:12:04;;;;;;;;;;;;;;;25.15;46.54;101768.28;4840523;28;113728;-74
2023/07/17 09:14:32;;;;;;;;;;;;;;;25.26;46.81;101784.44;4842540;29;113845;-74
2023/07/17 09:17:04;;;;;;;;;;;;;;;25.34;46.76;101779.16;4845182;29;124458;-74
2023/07/17 09:19:34;;;;;;;;;;;;;;;25.39;46.66;101785.00;4845973;29;124108;-74
2023/07/17 09:22:01;;;;;;;;;;;;;;;25.42;46.67;101779.28;4848353;29;114474;-75
2023/07/17 09:24:29;;;;;;;;;;;;;;;25.49;46.57;101779.56;4853725;29;113819;-75
2023/07/17 09:26:56;;;;;;;;;;;;;;;25.61;46.57;101788.41;4850537;29;124894;-74
2023/07/17 09:29:24;;;;;;;;;;;;;;;25.68;46.64;101778.69;4850520;29;124462;-74
2023/07/17 09:31:51;;;;;;;;;;;;;;;25.69;46.17;101772.25;4858288;28;113624;-74
2023/07/17 09:34:18;;;;;;;;;;;;;;;25.75;46.58;101774.41;4847293;29;113935;-74
2023/07/17 09:36:49;;;;;;;;;;;;;;;25.81;46.33;101772.97;4849879;28;124137;-75
2023/07/17 09:39:16;;;;;;;;;;;;;;;25.93;46.28;101782.66;4838112;29;123637;-75
2023/07/17 09:41:43;;;;;;;;;;;;;;;26.03;46.47;101774.47;4846848;29;115655;-75
2023/07/17 09:44:16;;;;;;;;;;;;;;;26.15;46.63;101776.03;4855918;28;114586;-74
2023/07/17 09:46:44;;;;;;;;;;;;;;;26.32;46.51;101781.69;4847579;28;124612;-74
2023/07/17 09:49:11;;;;;;;;;;;;;;;26.40;46.22;101779.06;4845171;28;124201;-74
2023/07/17 09:51:38;;;;;;;;;;;;;;;26.48;46.27;101781.03;4865669;28;113897;-74
2023/07/17 09:54:05;;;;;;;;;;;;;;;26.56;46.01;101773.84;4859696;28;113317;-74
2023/07/17 09:56:32;;;;;;;;;;;;;;;26.63;46.03;101773.25;4849533;29;125458;-74
2023/07/17 09:59:06;;;;;;;;;;;;;;;26.65;45.90;101776.69;4842692;29;123989;-74
2023/07/17 10:01:33;;;;;;;;;;;;;;;26.65;45.59;101787.56;4832633;29;115188;-75
2023/07/17 10:04:03;;;;;;;;;;;;;;;26.68;45.62;101781.81;4847044;28;114877;-75
2023/07/17 10:06:30;;;;;;;;;;;;;;;26.71;45.97;101786.94;4832454;29;126281;-75
2023/07/17 10:08:59;;;;;;;;;;;;;;;26.70;45.65;101785.25;4846714;28;126071;-74
2023/07/17 10:11:26;;;;;;;;;;;;;;;26.64;45.56;101786.72;4833497;29;112464;-73
2023/07/17 10:13:54;;;;;;;;;;;;;;;26.54;45.30;101781.28;4832565;29;113469;-75
2023/07/17 10:16:21;;;;;;;;;;;;;;;26.47;45.19;101790.22;4842671;29;124055;-75
2023/07/17 10:18:49;;;;;;;;;;;;;;;26.44;45.47;101780.47;4843412;29;124595;-75
2023/07/17 10:21:16;;;;;;;;;;;;;;;26.40;45.75;101784.50;4848052;28;114395;-75
2023/07/17 10:23:45;;;;;;;;;;;;;;;26.35;45.59;101789.53;4841060;29;113873;-75
2023/07/17 10:26:13;;;;;;;;;;;;;;;26.35;45.26;101775.94;4843716;29;124419;-74
2023/07/17 10:28:41;;;;;;;;;;;;;;;26.38;45.44;101791.94;4851372;29;124436;-75
2023/07/17 10:31:08;;;;;;;;;;;;;;;26.42;45.65;101782.50;4844312;28;115454;-75
2023/07/17 10:33:36;;;;;;;;;;;;;;;26.43;45.27;101789.66;4847498;29;115515;-75
2023/07/17 10:36:03;;;;;;;;;;;;;;;26.37;44.95;101790.22;4837152;29;124699;-75
2023/07/17 10:38:31;;;;;;;;;;;;;;;26.27;45.13;101784.00;4842025;29;123412;-76
2023/07/17 10:41:04;;;;;;;;;;;;;;;26.13;45.17;101793.50;4857882;28;114697;-76
2023/07/17 10:43:33;;;;;;;;;;;;;;;26.02;45.27;101780.94;4837812;29;112857;-74
2023/07/17 10:46:06;;;;;;;;;;;;;;;25.98;45.27;101779.53;4836773;29;124081;-75
2023/07/17 10:48:33;;;;;;;;;;;;;;;26.01;45.64;101779.22;4843050;29;123372;-75
2023/07/17 10:51:01;;;;;;;;;;;;;;;26.09;45.59;101782.06;4838549;29;114667;-75
2023/07/17 10:53:28;;;;;;;;;;;;;;;26.19;45.58;101779.31;4851662;28;113863;-74
2023/07/17 10:55:55;;;;;;;;;;;;;;;26.33;45.53;101777.94;4836247;29;124005;-75
2023/07/17 10:58:22;;;;;;;;;;;;;;;26.41;45.48;101775.38;4835233;29;125472;-75
2023/07/17 11:00:49;;;;;;;;;;;;;;;26.46;45.39;101778.47;4836347;29;114408;-74
2023/07/17 11:03:16;;;;;;;;;;;;;;;26.57;45.32;101780.97;4846843;29;113644;-75
2023/07/17 11:05:44;;;;;;;;;;;;;;;26.67;45.41;101775.50;4845153;29;125069;-75
2023/07/17 11:08:12;;;;;;;;;;;;;;;26.70;45.02;101780.66;4840750;29;123693;-75
2023/07/17 11:10:42;;;;;;;;;;;;;;;26.68;44.68;101781.81;4839055;28;113592;-74
2023/07/17 11:13:09;;;;;;;;;;;;;;;26.63;44.63;101774.13;4839714;29;114489;-75
2023/07/17 11:15:37;;;;;;;;;;;;;;;26.61;44.60;101781.56;4854946;28;126275;-75
2023/07/17 11:18:05;;;;;;;;;;;;;;;26.64;44.65;101780.44;4855014;29;124124;-75
2023/07/17 11:20:32;;;;;;;;;;;;;;;26.71;44.94;101770.63;4860826;28;114869;-75
2023/07/17 11:22:59;;;;;;;;;;;;;;;26.83;45.10;101774.84;4846185;29;116030;-75
2023/07/17 11:25:27;;;;;;;;;;;;;;;26.93;45.04;101780.22;4858402;28;122394;-76
2023/07/17 11:27:56;;;;;;;;;;;;;;;26.96;44.72;101775.34;4842255;29;124555;-75
2023/07/17 11:30:27;;;;;;;;;;;;;;;26.96;44.48;101764.47;4845940;29;114859;-74
2023/07/17 11:32:57;;;;;;;;;;;;;;;27.00;44.42;101774.00;4844891;29;113661;-75
2023/07/17 11:35:44;;;;;;;;;;;;;;;27.07;44.51;101762.50;4863664;28;125831;-74
2023/07/17 11:38:15;;;;;;;;;;;;;;;27.12;44.50;101768.34;4851688;29;124944;-75
2023/07/17 11:40:52;;;;;;;;;;;;;;;27.14;44.34;101772.63;4850272;28;113583;-75
2023/07/17 11:43:23;;;;;;;;;;;;;;;27.17;44.38;101768.75;4840384;29;113979;-74
2023/07/17 11:45:52;;;;;;;;;;;;;;;27.21;44.35;101767.41;4836884;29;124855;-75
2023/07/17 11:48:19;;;;;;;;;;;;;;;27.24;44.28;101761.69;4858559;28;124939;-75
2023/07/17 11:50:46;;;;;;;;;;;;;;;27.27;44.55;101772.25;4842919;29;114457;-75
2023/07/17 11:53:13;;;;;;;;;;;;;;;27.28;44.27;101767.69;4858477;29;113690;-74
2023/07/17 11:55:41;;;;;;;;;;;;;;;27.33;44.19;101759.91;4840344;29;124218;-75
2023/07/17 11:58:12;;;;;;;;;;;;;;;27.39;44.13;101764.72;4844769;29;124243;-75
2023/07/17 12:00:41;;;;;;;;;;;;;;;27.44;44.00;101777.84;4838052;29;113412;-75
2023/07/17 12:03:08;;;;;;;;;;;;;;;27.40;43.69;101765.56;4839120;29;113743;-74
2023/07/17 12:05:38;;;;;;;;;;;;;;;27.35;43.90;101763.31;4839379;29;124195;-75
2023/07/17 12:08:06;;;;;;;;;;;;;;;27.31;43.99;101761.91;4853382;29;123683;-75
2023/07/17 12:10:33;;;;;;;;;;;;;;;27.27;44.09;101761.38;4849867;29;114333;-74
2023/07/17 12:13:01;;;;;;;;;;;;;;;27.23;43.90;101764.53;4850346;29;114858;-75
2023/07/17 12:15:28;;;;;;;;;;;;;;;27.16;43.73;101753.41;4845138;29;125113;-75
2023/07/17 12:17:55;;;;;;;;;;;;;;;27.11;43.70;101759.34;4856704;28;122946;-74
2023/07/17 12:20:22;;;;;;;;;;;;;;;27.08;43.75;101772.38;4839420;29;114476;-75
2023/07/17 12:22:50;;;;;;;;;;;;;;;27.02;43.60;101767.59;4840011;29;114644;-74
2023/07/17 12:25:17;;;;;;;;;;;;;;;27.11;43.89;101767.50;4844499;29;124173;-75
2023/07/17 12:27:45;;;;;;;;;;;;;;;27.19;43.90;101780.31;4840918;29;123359;-72
2023/07/17 12:30:13;;;;;;;;;;;;;;;27.24;43.71;101772.56;4839192;29;114896;-75